LEXJ Airport Information

Runway Information
Runway 11 Length 7612 ft width 148 ft
Elevation 11 ft Threshold 0 ft Heading 110
Runway 29 Length 7612 ft Width 148 ft
Elevation 12 ft Threshold 0 ft Heading 290
Airport Frequencies
Type APP Name APP Frequency 118.375 MHZ
Type GND Name GND Frequency 121.7 MHZ
Type TWR Name TWR Frequency 118.1 MHZ
Airport Navaids
Type NDB Name Santander Frequency 416 KHZ
Type VOR-DME Name Santander Frequency 115300 KHZ
Airport Weather Information & NOTAM
ADDS - METARS form results

(2228 UTC 29 October 2020)
Data provider http://aviationweather.gov/metar/data/
 
METAR text: LEXJ 292200Z VRB02KT CAVOK 12/11 Q1025
Conditions at: LEXJ (SANTANDER/PARAYA, ES) observed 2200 UTC 29 October 2020
Temperature: 12.0°C (54°F)
Dewpoint: 11.0°C (52°F) [RH = 94%]
Pressure (altimeter): 30.27 inches Hg (1025.0 mb)
Winds: variable direction winds at 2 MPH (2 knots; 1.0 m/s)
Visibility: 6 or more miles (10+ km)
Ceiling: ceiling and visibility are OK
Clouds: unknown
Weather: no significant weather observed at this time

METAR text: LEXJ 292130Z 22003KT 160V260 CAVOK 12/12 Q1025
Conditions at: LEXJ (SANTANDER/PARAYA, ES) observed 2130 UTC 29 October 2020
Temperature: 12.0°C (54°F)
Dewpoint: 12.0°C (54°F) [RH = 100%]
Pressure (altimeter): 30.27 inches Hg (1025.0 mb)
Winds: from the SW (220 degrees) at 3 MPH (3 knots; 1.5 m/s)
Visibility: 6 or more miles (10+ km)
Ceiling: ceiling and visibility are OK
Clouds: unknown
Weather: no significant weather observed at this time

Forecast for: LEXJ (SANTANDER/PARAYA, ES)
Text: TAF LEXJ 292000Z 2921/3021 20005KT CAVOK TX19/3013Z TN10/3007Z
Forecast period: 2100 UTC 29 October 2020 to 2100 UTC 30 October 2020
Forecast type: FROM: standard forecast or significant change
Winds: from the SSW (200 degrees) at 6 MPH (5 knots; 2.6 m/s)
Visibility: 6 or more miles (10+ km)
Ceiling: unknown
Clouds: missing
Weather: no significant weather forecast for this period
Text: TEMPO 3011/3017 05010KT
Forecast period: 1100 to 1700 UTC 30 October 2020
Forecast type: TEMPORARY: The following changes expected for less than half the time period
Winds: from the NE (50 degrees) at 12 MPH (10 knots; 5.1 m/s)
Visibility: missing
Ceiling: unknown
Clouds: missing
Weather: no significant weather forecast for this period
Text: PROB30
Forecast period: 0000 to 0700 UTC 30 October 2020
Forecast type: TEMPORARY: The following changes expected for less than half the time period
Visibility: 0.93 miles (1.50 km)
Ceiling: unknown
Clouds: missing
Weather: BCFG  (patches of fog)